Time;durP1;ratioP1;P1;durP2;ratioP2;P2;SDS_P1;SDS_P2;PMS_P1;PMS_P2;Temp;Humidity;BMP_temperature;BMP_pressure;BME280_temperature;BME280_humidity;BME280_pressure;Samples;Min_cycle;Max_cycle;Signal;HPM_P1;HPM_P2
2022/08/12 00:43:54;;;;;;;1.00;1.00;;;;;;;;;;1869371;76;26207;-87
2022/08/12 00:46:35;;;;;;;1.10;1.10;;;;;;;;;;1873465;76;26384;-86
2022/08/12 00:49:01;;;;;;;0.90;0.90;;;;;;;;;;1860350;76;26219;-86
2022/08/12 00:54:18;;;;;;;0.95;0.95;;;;;;;;;;1873136;75;26249;-86
2022/08/12 00:56:45;;;;;;;1.02;1.02;;;;;;;;;;1880455;76;26376;-86
2022/08/12 00:59:12;;;;;;;0.90;0.90;;;;;;;;;;1880808;75;26255;-86
2022/08/12 01:01:41;;;;;;;1.00;1.00;;;;;;;;;;1880417;76;26323;-86
2022/08/12 01:12:26;;;;;;;0.95;0.95;;;;;;;;;;1872758;75;26764;-86
2022/08/12 01:14:54;;;;;;;1.00;1.00;;;;;;;;;;1873009;75;26267;-86
2022/08/12 01:17:21;;;;;;;0.90;0.90;;;;;;;;;;1877754;75;26225;-85
2022/08/12 01:19:50;;;;;;;1.00;1.00;;;;;;;;;;1863928;76;26372;-85
2022/08/12 01:22:28;;;;;;;1.12;1.02;;;;;;;;;;1863896;76;26247;-86
2022/08/12 01:25:02;;;;;;;0.90;0.90;;;;;;;;;;1860233;75;26357;-86
2022/08/12 01:27:33;;;;;;;0.95;0.90;;;;;;;;;;1880062;74;26930;-85
2022/08/12 01:30:02;;;;;;;1.00;1.00;;;;;;;;;;1887167;74;26383;-86
2022/08/12 01:32:30;;;;;;;1.00;1.00;;;;;;;;;;1886394;76;26906;-86
2022/08/12 01:34:59;;;;;;;0.90;0.90;;;;;;;;;;1879626;75;26245;-86
2022/08/12 01:37:29;;;;;;;0.90;0.90;;;;;;;;;;1886158;75;26355;-86
2022/08/12 01:39:58;;;;;;;1.00;1.00;;;;;;;;;;1881401;74;26381;-86
2022/08/12 01:42:25;;;;;;;0.90;0.90;;;;;;;;;;1876234;74;26405;-85
2022/08/12 01:44:53;;;;;;;1.00;1.00;;;;;;;;;;1902939;74;26232;-85
2022/08/12 01:47:22;;;;;;;0.90;0.90;;;;;;;;;;1885982;74;26285;-86
2022/08/12 01:50:09;;;;;;;1.00;1.00;;;;;;;;;;1893099;74;26216;-86
2022/08/12 01:52:38;;;;;;;1.00;1.00;;;;;;;;;;1849644;75;26251;-86
2022/08/12 01:55:06;;;;;;;1.00;1.00;;;;;;;;;;1837548;75;26328;-86
2022/08/12 01:57:43;;;;;;;0.90;0.90;;;;;;;;;;1825549;78;26828;-85
2022/08/12 02:00:12;;;;;;;0.90;0.90;;;;;;;;;;1823271;77;26809;-84
2022/08/12 02:02:41;;;;;;;0.80;0.80;;;;;;;;;;1824201;77;26338;-86
2022/08/12 02:11:28;;;;;;;0.90;0.90;;;;;;;;;;1849980;77;26695;-86
2022/08/12 02:13:58;;;;;;;0.88;0.88;;;;;;;;;;1843145;77;26250;-86
2022/08/12 02:16:45;;;;;;;1.02;1.02;;;;;;;;;;1845099;76;26231;-86
2022/08/12 02:19:20;;;;;;;0.90;0.90;;;;;;;;;;1845136;78;26655;-86
2022/08/12 02:21:49;;;;;;;0.90;0.90;;;;;;;;;;1844742;77;26258;-85
2022/08/12 02:24:18;;;;;;;0.98;0.98;;;;;;;;;;1830045;77;26698;-86
2022/08/12 02:26:47;;;;;;;0.80;0.80;;;;;;;;;;1840398;77;26267;-86
2022/08/12 02:29:14;;;;;;;0.80;0.80;;;;;;;;;;1824374;78;26294;-86
2022/08/12 02:31:44;;;;;;;1.00;1.00;;;;;;;;;;1850172;77;26874;-85
2022/08/12 02:34:12;;;;;;;0.90;0.90;;;;;;;;;;1849753;77;26339;-86
2022/08/12 02:36:40;;;;;;;0.98;0.98;;;;;;;;;;1849494;76;26227;-85
2022/08/12 02:39:08;;;;;;;0.90;0.90;;;;;;;;;;1860326;76;26345;-86
2022/08/12 02:41:37;;;;;;;0.90;0.90;;;;;;;;;;1863835;77;26403;-86
2022/08/12 02:44:06;;;;;;;1.00;1.00;;;;;;;;;;1859071;77;26320;-86
2022/08/12 02:46:34;;;;;;;0.93;0.93;;;;;;;;;;1852065;77;26290;-86
2022/08/12 02:49:06;;;;;;;0.80;0.80;;;;;;;;;;1862133;76;26703;-85
2022/08/12 02:51:35;;;;;;;0.80;0.80;;;;;;;;;;1861203;77;26295;-86
2022/08/12 02:54:04;;;;;;;0.85;0.85;;;;;;;;;;1862742;77;26279;-85
2022/08/12 02:56:31;;;;;;;1.00;1.00;;;;;;;;;;1868403;76;26206;-86
2022/08/12 02:58:59;;;;;;;0.90;0.90;;;;;;;;;;1863786;77;26254;-86
2022/08/12 03:01:35;;;;;;;0.90;0.90;;;;;;;;;;1883030;76;26411;-84
2022/08/12 03:04:01;;;;;;;1.00;1.00;;;;;;;;;;1864406;76;26294;-86
2022/08/12 03:06:30;;;;;;;1.12;1.12;;;;;;;;;;1859733;77;26334;-86
2022/08/12 03:08:58;;;;;;;1.00;1.00;;;;;;;;;;1837993;77;26738;-85
2022/08/12 03:11:27;;;;;;;0.90;0.90;;;;;;;;;;1862336;77;26291;-87
2022/08/12 03:13:58;;;;;;;0.90;0.90;;;;;;;;;;1847193;77;26239;-86
2022/08/12 03:16:29;;;;;;;0.88;0.88;;;;;;;;;;1861699;76;26264;-86
2022/08/12 03:18:57;;;;;;;1.00;1.00;;;;;;;;;;1865487;77;26302;-85
2022/08/12 03:21:24;;;;;;;0.90;0.90;;;;;;;;;;1865799;77;26302;-86
2022/08/12 03:23:53;;;;;;;1.00;1.00;;;;;;;;;;1874561;76;26219;-86
2022/08/12 03:26:25;;;;;;;0.90;0.90;;;;;;;;;;1844412;77;26338;-87
2022/08/12 03:28:52;;;;;;;0.90;0.90;;;;;;;;;;1853900;77;26279;-86
2022/08/12 03:31:21;;;;;;;0.93;0.93;;;;;;;;;;1856092;77;26420;-87
2022/08/12 03:33:49;;;;;;;0.90;0.90;;;;;;;;;;1842803;76;26247;-86
2022/08/12 03:36:19;;;;;;;0.80;0.80;;;;;;;;;;1854337;77;26263;-87
2022/08/12 03:38:59;;;;;;;0.90;0.90;;;;;;;;;;1839918;77;26301;-86
2022/08/12 03:41:36;;;;;;;0.93;0.93;;;;;;;;;;1842528;77;26949;-86
2022/08/12 04:00:39;;;;;;;0.90;0.90;;;;;;;;;;1869176;76;26992;-86
2022/08/12 04:03:50;;;;;;;1.02;1.00;;;;;;;;;;1868969;76;26268;-85
2022/08/12 04:05:36;;;;;;;0.88;0.88;;;;;;;;;;1869780;76;26524;-84
2022/08/12 04:08:03;;;;;;;0.88;0.88;;;;;;;;;;1885463;76;26303;-85
2022/08/12 04:13:15;;;;;;;0.90;0.90;;;;;;;;;;1855556;75;26343;-86
2022/08/12 04:13:15;;;;;;;0.90;0.90;;;;;;;;;;1868600;76;26784;-85
2022/08/12 04:15:44;;;;;;;0.90;0.90;;;;;;;;;;1870020;76;26297;-86
2022/08/12 04:18:14;;;;;;;1.00;1.00;;;;;;;;;;1876803;74;26556;-86
2022/08/12 04:20:47;;;;;;;1.00;1.00;;;;;;;;;;1875243;74;26234;-85
2022/08/12 04:23:14;;;;;;;0.98;0.98;;;;;;;;;;1867531;73;26352;-86
2022/08/12 04:25:43;;;;;;;0.85;0.85;;;;;;;;;;1877430;74;26290;-85
2022/08/12 04:28:11;;;;;;;1.00;1.00;;;;;;;;;;1865351;74;26668;-85
2022/08/12 04:30:39;;;;;;;0.90;0.90;;;;;;;;;;1878230;74;26275;-86
2022/08/12 04:33:12;;;;;;;1.65;1.10;;;;;;;;;;1830672;75;26331;-85
2022/08/12 04:35:36;;;;;;;0.85;0.85;;;;;;;;;;1820033;78;26714;-85
2022/08/12 04:38:04;;;;;;;0.90;0.90;;;;;;;;;;1821513;78;26251;-86
2022/08/12 04:40:32;;;;;;;0.90;0.90;;;;;;;;;;1828521;78;26341;-84
2022/08/12 04:43:00;;;;;;;0.98;0.98;;;;;;;;;;1831217;77;26367;-84
2022/08/12 04:45:27;;;;;;;0.88;0.88;;;;;;;;;;1818313;78;26277;-85
2022/08/12 04:47:55;;;;;;;0.90;0.90;;;;;;;;;;1805075;78;26286;-86
2022/08/12 04:50:23;;;;;;;1.12;1.12;;;;;;;;;;1828639;78;26829;-85
2022/08/12 04:52:51;;;;;;;0.85;0.85;;;;;;;;;;1828884;78;26339;-86
2022/08/12 04:55:18;;;;;;;0.90;0.90;;;;;;;;;;1808774;78;26791;-85
2022/08/12 04:57:46;;;;;;;1.10;1.10;;;;;;;;;;1828508;78;26255;-86
2022/08/12 05:00:15;;;;;;;1.10;1.10;;;;;;;;;;1835896;78;26708;-86
2022/08/12 05:02:42;;;;;;;1.22;1.10;;;;;;;;;;1837175;78;26291;-84
2022/08/12 05:05:14;;;;;;;1.10;1.10;;;;;;;;;;1827364;77;26274;-86
2022/08/12 05:07:41;;;;;;;1.07;0.98;;;;;;;;;;1808322;78;26709;-85
2022/08/12 05:10:09;;;;;;;0.90;0.90;;;;;;;;;;1833144;78;26228;-85
2022/08/12 05:12:38;;;;;;;1.52;0.95;;;;;;;;;;1828904;78;26911;-85
2022/08/12 05:15:05;;;;;;;0.90;0.90;;;;;;;;;;1822687;78;26762;-85
2022/08/12 05:17:33;;;;;;;0.90;0.90;;;;;;;;;;1811937;78;26219;-85
2022/08/12 05:20:00;;;;;;;1.00;1.00;;;;;;;;;;1825942;78;26267;-85
2022/08/12 05:22:27;;;;;;;0.90;0.90;;;;;;;;;;1819563;77;26358;-85
2022/08/12 05:24:55;;;;;;;1.00;1.00;;;;;;;;;;1824957;78;26329;-85
2022/08/12 05:27:22;;;;;;;1.07;1.07;;;;;;;;;;1815901;78;26711;-86
2022/08/12 05:29:49;;;;;;;1.00;1.00;;;;;;;;;;1826820;78;27417;-86
2022/08/12 05:32:19;;;;;;;0.80;0.80;;;;;;;;;;1824401;77;26260;-85
2022/08/12 05:34:49;;;;;;;0.90;0.90;;;;;;;;;;1823955;78;26308;-86
2022/08/12 05:37:16;;;;;;;0.80;0.80;;;;;;;;;;1823761;77;27131;-86
2022/08/12 05:39:44;;;;;;;0.90;0.90;;;;;;;;;;1817358;78;26331;-85
2022/08/12 05:42:12;;;;;;;0.95;0.95;;;;;;;;;;1822947;78;26280;-85
2022/08/12 05:44:39;;;;;;;0.90;0.90;;;;;;;;;;1818418;78;26289;-84
2022/08/12 05:47:06;;;;;;;1.87;0.90;;;;;;;;;;1819359;78;26272;-85
2022/08/12 05:49:39;;;;;;;1.00;1.00;;;;;;;;;;1823597;78;26264;-85
2022/08/12 05:52:03;;;;;;;0.90;0.90;;;;;;;;;;1824094;78;26317;-86
2022/08/12 05:54:31;;;;;;;1.10;1.10;;;;;;;;;;1823459;77;27198;-85
2022/08/12 05:56:59;;;;;;;1.12;1.00;;;;;;;;;;1815828;77;26267;-85
2022/08/12 05:59:26;;;;;;;1.00;1.00;;;;;;;;;;1822632;78;26306;-85
2022/08/12 06:02:02;;;;;;;5.08;1.15;;;;;;;;;;1822408;77;26260;-85
2022/08/12 06:04:22;;;;;;;0.93;0.93;;;;;;;;;;1827769;78;26296;-85
2022/08/12 06:06:52;;;;;;;1.95;0.90;;;;;;;;;;1825950;77;26264;-85
2022/08/12 06:09:18;;;;;;;2.27;0.82;;;;;;;;;;1826809;78;26305;-85
2022/08/12 06:11:46;;;;;;;2.45;1.00;;;;;;;;;;1830821;78;26220;-85
2022/08/12 06:14:14;;;;;;;1.57;1.00;;;;;;;;;;1807902;78;26350;-85
2022/08/12 06:16:42;;;;;;;0.88;0.88;;;;;;;;;;1820022;78;26922;-86
2022/08/12 06:19:10;;;;;;;1.17;1.07;;;;;;;;;;1821534;78;26329;-85
2022/08/12 06:21:37;;;;;;;1.10;1.00;;;;;;;;;;1822736;77;26244;-85
2022/08/12 06:24:04;;;;;;;1.30;1.00;;;;;;;;;;1823757;77;26243;-85
2022/08/12 06:26:33;;;;;;;0.90;0.90;;;;;;;;;;1806234;78;26272;-86
2022/08/12 06:29:00;;;;;;;0.98;0.98;;;;;;;;;;1810497;78;26278;-86
2022/08/12 06:31:27;;;;;;;0.98;0.98;;;;;;;;;;1824875;78;26305;-86
2022/08/12 06:33:55;;;;;;;1.32;0.90;;;;;;;;;;1845472;76;26236;-85
2022/08/12 06:36:23;;;;;;;3.08;1.10;;;;;;;;;;1855629;76;26236;-86
2022/08/12 06:38:51;;;;;;;1.60;0.93;;;;;;;;;;1843364;76;26295;-86
2022/08/12 06:44:05;;;;;;;1.65;0.90;;;;;;;;;;1853690;76;26731;-86
2022/08/12 06:46:35;;;;;;;1.02;1.00;;;;;;;;;;1849156;76;26278;-86
2022/08/12 06:49:01;;;;;;;3.70;1.00;;;;;;;;;;1844358;77;26799;-86
2022/08/12 06:51:30;;;;;;;0.93;0.88;;;;;;;;;;1852824;76;26745;-86
2022/08/12 06:53:59;;;;;;;1.00;1.00;;;;;;;;;;1848823;77;26988;-85
2022/08/12 06:56:26;;;;;;;3.02;0.90;;;;;;;;;;1856355;76;26220;-86
2022/08/12 06:58:54;;;;;;;0.95;0.95;;;;;;;;;;1851506;76;26264;-86
2022/08/12 07:01:22;;;;;;;2.25;1.20;;;;;;;;;;1857087;76;26300;-86
2022/08/12 07:03:50;;;;;;;0.98;0.93;;;;;;;;;;1841469;76;26254;-86
2022/08/12 07:06:17;;;;;;;1.12;1.00;;;;;;;;;;1843192;76;26317;-86
2022/08/12 07:08:44;;;;;;;0.98;0.98;;;;;;;;;;1849687;76;26785;-86
2022/08/12 07:11:12;;;;;;;1.22;1.12;;;;;;;;;;1847242;76;26267;-86
2022/08/12 07:13:44;;;;;;;1.10;1.10;;;;;;;;;;1845445;76;26332;-86
2022/08/12 07:16:13;;;;;;;1.72;0.95;;;;;;;;;;1856591;76;26306;-86
2022/08/12 07:18:41;;;;;;;1.12;1.02;;;;;;;;;;1856432;76;26382;-85
2022/08/12 07:21:09;;;;;;;1.60;1.25;;;;;;;;;;1856828;76;26288;-85
2022/08/12 07:23:37;;;;;;;1.10;0.90;;;;;;;;;;1862373;76;26243;-86
2022/08/12 07:26:06;;;;;;;0.98;0.98;;;;;;;;;;1842818;76;26292;-85
2022/08/12 07:28:37;;;;;;;1.20;1.10;;;;;;;;;;1855969;76;26262;-86
2022/08/12 07:31:08;;;;;;;1.52;1.00;;;;;;;;;;1863008;76;26752;-86
2022/08/12 07:33:40;;;;;;;1.12;1.12;;;;;;;;;;1855500;76;26328;-85
2022/08/12 07:36:06;;;;;;;1.00;1.00;;;;;;;;;;1855734;76;26277;-86
2022/08/12 07:38:38;;;;;;;1.12;1.12;;;;;;;;;;1827866;76;26710;-86
2022/08/12 07:41:09;;;;;;;1.00;1.00;;;;;;;;;;1850791;76;26271;-86
2022/08/12 07:43:38;;;;;;;1.10;1.10;;;;;;;;;;1855131;76;26253;-86
2022/08/12 07:46:06;;;;;;;0.90;0.90;;;;;;;;;;1854548;77;26229;-85
2022/08/12 07:48:38;;;;;;;1.10;1.10;;;;;;;;;;1856081;76;26279;-86
2022/08/12 07:51:05;;;;;;;0.98;0.98;;;;;;;;;;1846544;76;26233;-85
2022/08/12 07:53:33;;;;;;;1.20;1.10;;;;;;;;;;1856794;76;26332;-85
2022/08/12 07:56:01;;;;;;;1.10;1.10;;;;;;;;;;1849687;76;26279;-87
2022/08/12 07:58:29;;;;;;;1.10;1.10;;;;;;;;;;1847269;76;26363;-85
2022/08/12 08:00:56;;;;;;;0.98;0.98;;;;;;;;;;1846290;76;26251;-85
2022/08/12 08:03:28;;;;;;;0.90;0.90;;;;;;;;;;1847484;76;26239;-85
2022/08/12 08:05:52;;;;;;;1.00;1.00;;;;;;;;;;1848841;76;26260;-86
2022/08/12 08:08:21;;;;;;;1.00;1.00;;;;;;;;;;1854086;77;26251;-84
2022/08/12 08:10:49;;;;;;;1.05;1.05;;;;;;;;;;1844956;76;26243;-85
2022/08/12 08:13:17;;;;;;;1.00;1.00;;;;;;;;;;1848773;76;26268;-85
2022/08/12 08:15:45;;;;;;;1.25;1.15;;;;;;;;;;1848376;76;26313;-85
2022/08/12 08:18:14;;;;;;;1.00;1.00;;;;;;;;;;1857181;76;26332;-86
2022/08/12 08:20:44;;;;;;;1.10;1.10;;;;;;;;;;1847859;76;26328;-85
2022/08/12 08:23:15;;;;;;;1.10;1.10;;;;;;;;;;1867466;76;26259;-85
2022/08/12 08:25:44;;;;;;;0.88;0.88;;;;;;;;;;1856933;76;26705;-84
2022/08/12 08:28:12;;;;;;;1.07;1.07;;;;;;;;;;1856805;76;26757;-85
2022/08/12 08:30:42;;;;;;;1.10;1.10;;;;;;;;;;1843957;76;26326;-85
2022/08/12 08:33:10;;;;;;;1.10;1.10;;;;;;;;;;1840835;76;26345;-85
2022/08/12 08:35:41;;;;;;;1.10;1.10;;;;;;;;;;1847583;77;26305;-85
2022/08/12 08:38:10;;;;;;;1.20;1.20;;;;;;;;;;1851122;76;26275;-85
2022/08/12 08:43:24;;;;;;;1.20;1.20;;;;;;;;;;1840591;76;26280;-85
2022/08/12 08:45:51;;;;;;;1.07;1.02;;;;;;;;;;1857125;76;26259;-86
2022/08/12 08:48:20;;;;;;;1.00;1.00;;;;;;;;;;1850341;76;26319;-85
2022/08/12 08:50:48;;;;;;;1.05;1.02;;;;;;;;;;1848465;76;26553;-86
2022/08/12 08:53:16;;;;;;;0.95;0.95;;;;;;;;;;1841145;76;26266;-85
2022/08/12 08:55:44;;;;;;;1.20;1.20;;;;;;;;;;1843344;76;26703;-85
2022/08/12 08:58:11;;;;;;;1.00;1.00;;;;;;;;;;1850559;77;26271;-85
2022/08/12 09:00:38;;;;;;;1.20;1.20;;;;;;;;;;1843947;76;26263;-86
2022/08/12 09:03:07;;;;;;;1.10;1.10;;;;;;;;;;1845176;76;26325;-86
2022/08/12 09:05:34;;;;;;;1.10;1.10;;;;;;;;;;1857558;76;26342;-87
2022/08/12 09:08:03;;;;;;;1.05;1.05;;;;;;;;;;1834415;76;26273;-87
2022/08/12 09:10:32;;;;;;;1.10;1.10;;;;;;;;;;1856698;77;26310;-86
2022/08/12 09:15:46;;;;;;;1.10;1.10;;;;;;;;;;1859634;76;26656;-85
2022/08/12 09:18:14;;;;;;;1.15;1.15;;;;;;;;;;1849217;76;26235;-85
2022/08/12 09:20:42;;;;;;;1.20;1.10;;;;;;;;;;1857693;76;26306;-86
2022/08/12 09:23:10;;;;;;;1.00;1.00;;;;;;;;;;1836136;76;26392;-85
2022/08/12 09:25:38;;;;;;;1.10;1.10;;;;;;;;;;1856687;76;26254;-85
2022/08/12 09:28:11;;;;;;;1.10;1.10;;;;;;;;;;1856703;76;26284;-85
2022/08/12 09:30:37;;;;;;;1.10;1.10;;;;;;;;;;1854361;76;26261;-86
2022/08/12 09:33:05;;;;;;;0.90;0.90;;;;;;;;;;1836699;76;26680;-86
2022/08/12 09:35:33;;;;;;;1.00;1.00;;;;;;;;;;1837057;76;26279;-86
2022/08/12 09:38:04;;;;;;;1.20;1.20;;;;;;;;;;1841055;77;27432;-86
2022/08/12 09:40:31;;;;;;;1.22;1.22;;;;;;;;;;1863227;76;26227;-86
2022/08/12 09:45:47;;;;;;;1.70;1.10;;;;;;;;;;1865037;76;26771;-86
2022/08/12 09:48:19;;;;;;;1.10;1.10;;;;;;;;;;1879830;76;26304;-88
2022/08/12 09:50:50;;;;;;;1.07;1.07;;;;;;;;;;1863918;75;26320;-87
2022/08/12 09:53:23;;;;;;;1.07;1.07;;;;;;;;;;1871410;76;26333;-86
2022/08/12 09:55:51;;;;;;;1.20;1.20;;;;;;;;;;1875027;75;26313;-87
2022/08/12 09:58:25;;;;;;;1.00;1.00;;;;;;;;;;1863770;75;26951;-86
2022/08/12 10:00:49;;;;;;;1.10;1.10;;;;;;;;;;1867452;75;26316;-86
2022/08/12 10:03:20;;;;;;;1.07;1.07;;;;;;;;;;1872851;76;26429;-85
2022/08/12 10:05:47;;;;;;;0.90;0.90;;;;;;;;;;1874134;76;26469;-87
2022/08/12 10:08:15;;;;;;;1.10;1.10;;;;;;;;;;1873634;75;27410;-86
2022/08/12 10:13:41;;;;;;;1.00;1.00;;;;;;;;;;1875384;76;26234;-86
2022/08/12 10:16:12;;;;;;;1.10;1.10;;;;;;;;;;1879655;76;26832;-84
2022/08/12 10:18:43;;;;;;;1.00;1.00;;;;;;;;;;1874921;76;26735;-85
2022/08/12 10:21:12;;;;;;;1.00;1.00;;;;;;;;;;1873499;76;26806;-85
2022/08/12 10:23:40;;;;;;;0.98;0.98;;;;;;;;;;1866730;76;26657;-85
2022/08/12 10:31:39;;;;;;;1.00;1.00;;;;;;;;;;1872871;76;26192;-86
2022/08/12 10:34:09;;;;;;;1.05;1.05;;;;;;;;;;1877059;73;26502;-87
2022/08/12 10:36:39;;;;;;;0.98;0.98;;;;;;;;;;1867575;75;26293;-86
2022/08/12 10:39:07;;;;;;;0.90;0.90;;;;;;;;;;1878632;76;26240;-86
2022/08/12 10:44:21;;;;;;;0.93;0.93;;;;;;;;;;1862765;76;26336;-87
2022/08/12 10:46:50;;;;;;;0.98;0.98;;;;;;;;;;1863728;75;26290;-86
2022/08/12 10:49:18;;;;;;;1.10;1.10;;;;;;;;;;1839923;77;26300;-87
2022/08/12 10:51:48;;;;;;;1.05;1.05;;;;;;;;;;1861282;76;26400;-86
2022/08/12 10:54:16;;;;;;;1.00;1.00;;;;;;;;;;1853667;76;26340;-85
2022/08/12 10:56:47;;;;;;;0.90;0.90;;;;;;;;;;1837546;76;26794;-85
2022/08/12 10:59:14;;;;;;;1.10;1.10;;;;;;;;;;1858674;75;26419;-86
2022/08/12 11:01:42;;;;;;;0.93;0.93;;;;;;;;;;1846124;76;26704;-85
2022/08/12 11:04:16;;;;;;;1.00;1.00;;;;;;;;;;1855732;76;26309;-86
2022/08/12 11:06:49;;;;;;;1.00;1.00;;;;;;;;;;1868990;75;26387;-86
2022/08/12 11:09:17;;;;;;;1.00;1.00;;;;;;;;;;1836805;77;26396;-86
2022/08/12 11:11:50;;;;;;;1.00;1.00;;;;;;;;;;1862092;76;26873;-86
2022/08/12 11:14:31;;;;;;;1.10;1.10;;;;;;;;;;1859319;76;26759;-87
2022/08/12 11:17:07;;;;;;;1.12;1.12;;;;;;;;;;1857768;75;26331;-86
2022/08/12 11:19:36;;;;;;;1.00;1.00;;;;;;;;;;1857795;75;26315;-85
2022/08/12 11:22:04;;;;;;;1.07;1.07;;;;;;;;;;1847809;77;26801;-85
2022/08/12 11:24:31;;;;;;;0.90;0.90;;;;;;;;;;1866097;76;26556;-86
2022/08/12 11:27:00;;;;;;;0.90;0.90;;;;;;;;;;1858278;76;26314;-85
2022/08/12 11:29:28;;;;;;;0.95;0.95;;;;;;;;;;1853555;76;26300;-85
2022/08/12 11:31:56;;;;;;;1.00;1.00;;;;;;;;;;1858757;75;26380;-85
2022/08/12 11:34:23;;;;;;;1.00;1.00;;;;;;;;;;1857562;76;26273;-86
2022/08/12 11:37:03;;;;;;;1.00;1.00;;;;;;;;;;1856091;76;26518;-87
2022/08/12 11:39:31;;;;;;;1.00;1.00;;;;;;;;;;1830394;76;26365;-87
2022/08/12 11:41:59;;;;;;;1.00;1.00;;;;;;;;;;1855197;76;26304;-87
2022/08/12 11:44:26;;;;;;;0.90;0.90;;;;;;;;;;1848415;77;26307;-87
2022/08/12 11:46:54;;;;;;;1.00;1.00;;;;;;;;;;1843389;76;26391;-86
2022/08/12 11:49:22;;;;;;;0.90;0.90;;;;;;;;;;1832566;76;26280;-86
2022/08/12 11:51:49;;;;;;;1.10;1.10;;;;;;;;;;1853277;76;26343;-87
2022/08/12 11:54:17;;;;;;;0.90;0.90;;;;;;;;;;1850070;76;26270;-85
2022/08/12 11:56:44;;;;;;;0.90;0.90;;;;;;;;;;1876355;76;26288;-87
2022/08/12 11:59:11;;;;;;;0.88;0.88;;;;;;;;;;1858328;76;26287;-86
2022/08/12 12:01:38;;;;;;;0.90;0.90;;;;;;;;;;1845990;77;26747;-86
2022/08/12 12:04:06;;;;;;;1.00;1.00;;;;;;;;;;1863557;76;26191;-85
2022/08/12 12:06:34;;;;;;;1.00;1.00;;;;;;;;;;1834985;77;26282;-86
2022/08/12 12:09:01;;;;;;;1.00;1.00;;;;;;;;;;1852598;77;26371;-87
2022/08/12 12:11:29;;;;;;;1.07;0.93;;;;;;;;;;1853047;76;26308;-86
2022/08/12 12:13:56;;;;;;;0.90;0.90;;;;;;;;;;1841086;76;26285;-86
2022/08/12 12:16:23;;;;;;;1.00;1.00;;;;;;;;;;1845624;76;26359;-87
2022/08/12 12:18:50;;;;;;;1.00;1.00;;;;;;;;;;1847725;77;26223;-86
2022/08/12 12:21:18;;;;;;;0.90;0.90;;;;;;;;;;1847215;76;26303;-87
2022/08/12 12:23:45;;;;;;;1.00;1.00;;;;;;;;;;1849796;77;26261;-87
2022/08/12 12:26:12;;;;;;;0.90;0.90;;;;;;;;;;1847175;77;26737;-86
2022/08/12 12:28:41;;;;;;;0.95;0.95;;;;;;;;;;1851914;77;26287;-87
2022/08/12 12:31:08;;;;;;;1.05;1.05;;;;;;;;;;1840311;77;26252;-86
2022/08/12 12:33:35;;;;;;;1.02;1.02;;;;;;;;;;1854440;77;26302;-87
2022/08/12 12:36:03;;;;;;;0.90;0.90;;;;;;;;;;1851402;75;26336;-87
2022/08/12 12:38:30;;;;;;;1.00;1.00;;;;;;;;;;1868084;77;26302;-87
2022/08/12 12:40:57;;;;;;;1.00;1.00;;;;;;;;;;1865702;77;26299;-87
2022/08/12 12:43:25;;;;;;;1.05;1.05;;;;;;;;;;1863224;77;26285;-87
2022/08/12 12:45:52;;;;;;;0.90;0.90;;;;;;;;;;1865216;75;26332;-88
2022/08/12 12:48:20;;;;;;;0.90;0.90;;;;;;;;;;1868064;75;26365;-87
2022/08/12 12:51:14;;;;;;;0.80;0.80;;;;;;;;;;1873981;75;26246;-87
2022/08/12 12:53:21;;;;;;;0.95;0.95;;;;;;;;;;1866083;75;26283;-88
2022/08/12 12:55:47;;;;;;;0.90;0.90;;;;;;;;;;1846483;76;26308;-88
2022/08/12 12:58:19;;;;;;;0.90;0.90;;;;;;;;;;1866176;76;26700;-87
2022/08/12 13:00:49;;;;;;;1.00;1.00;;;;;;;;;;1868087;75;26305;-87
2022/08/12 13:03:17;;;;;;;1.00;1.00;;;;;;;;;;1864870;77;26827;-87
2022/08/12 13:05:44;;;;;;;0.98;0.98;;;;;;;;;;1865981;75;26312;-87
2022/08/12 13:08:23;;;;;;;0.93;0.93;;;;;;;;;;1863310;76;26611;-88
2022/08/12 13:10:48;;;;;;;1.00;1.00;;;;;;;;;;1858902;76;26320;-87
2022/08/12 13:13:17;;;;;;;0.85;0.85;;;;;;;;;;1864790;76;26286;-87
2022/08/12 13:15:46;;;;;;;0.82;0.82;;;;;;;;;;1854394;76;26352;-87
2022/08/12 13:18:14;;;;;;;0.80;0.80;;;;;;;;;;1862110;77;26230;-86
2022/08/12 13:20:46;;;;;;;0.90;0.90;;;;;;;;;;1839358;77;26420;-85
2022/08/12 13:23:11;;;;;;;0.95;0.95;;;;;;;;;;1865869;76;26321;-86
2022/08/12 13:25:42;;;;;;;1.00;1.00;;;;;;;;;;1860682;76;26227;-87
2022/08/12 13:28:08;;;;;;;0.90;0.90;;;;;;;;;;1844669;76;26369;-86
2022/08/12 13:30:35;;;;;;;1.00;1.00;;;;;;;;;;1880385;75;26278;-86
2022/08/12 13:33:04;;;;;;;0.90;0.90;;;;;;;;;;1865689;76;26719;-87
2022/08/12 13:35:38;;;;;;;1.05;0.93;;;;;;;;;;1855068;76;26377;-87
2022/08/12 13:38:09;;;;;;;0.90;0.90;;;;;;;;;;1848638;77;26351;-87
2022/08/12 13:40:34;;;;;;;0.98;0.98;;;;;;;;;;1840317;77;26822;-87
2022/08/12 13:43:05;;;;;;;0.90;0.90;;;;;;;;;;1861390;76;26206;-87
2022/08/12 13:45:31;;;;;;;1.02;1.02;;;;;;;;;;1843056;77;26731;-87
2022/08/12 13:48:03;;;;;;;1.00;1.00;;;;;;;;;;1853336;76;26341;-86
2022/08/12 13:50:37;;;;;;;1.00;0.90;;;;;;;;;;1851128;76;26270;-86
2022/08/12 13:53:09;;;;;;;0.90;0.90;;;;;;;;;;1850849;77;26254;-86
2022/08/12 13:55:37;;;;;;;0.90;0.90;;;;;;;;;;1834586;77;26311;-87
2022/08/12 13:58:05;;;;;;;0.90;0.90;;;;;;;;;;1854651;77;26704;-86
2022/08/12 14:00:35;;;;;;;0.90;0.90;;;;;;;;;;1856104;77;26295;-87
2022/08/12 14:03:02;;;;;;;0.90;0.90;;;;;;;;;;1832875;77;26257;-86
2022/08/12 14:05:32;;;;;;;0.98;0.98;;;;;;;;;;1850787;77;26232;-87
2022/08/12 14:08:04;;;;;;;1.00;1.00;;;;;;;;;;1847088;77;26330;-87
2022/08/12 14:10:36;;;;;;;1.00;1.00;;;;;;;;;;1848347;77;26250;-87
2022/08/12 14:13:07;;;;;;;1.00;1.00;;;;;;;;;;1848897;77;26706;-87
2022/08/12 14:15:37;;;;;;;0.90;0.90;;;;;;;;;;1848310;76;26332;-87
2022/08/12 14:18:08;;;;;;;1.10;1.10;;;;;;;;;;1865631;76;26340;-87
2022/08/12 14:20:35;;;;;;;0.95;0.95;;;;;;;;;;1846291;77;26252;-87
2022/08/12 14:23:02;;;;;;;0.88;0.88;;;;;;;;;;1850197;77;26303;-87
2022/08/12 14:25:30;;;;;;;1.00;1.00;;;;;;;;;;1855707;76;26234;-87
2022/08/12 14:28:04;;;;;;;0.93;0.93;;;;;;;;;;1861191;76;26723;-87
2022/08/12 14:30:31;;;;;;;1.00;1.00;;;;;;;;;;1838921;77;26269;-87
2022/08/12 14:33:02;;;;;;;0.93;0.93;;;;;;;;;;1854650;77;26722;-87
2022/08/12 14:35:27;;;;;;;0.90;0.90;;;;;;;;;;1850245;77;26789;-86
2022/08/12 14:37:55;;;;;;;1.00;1.00;;;;;;;;;;1854407;77;26308;-87
2022/08/12 14:40:22;;;;;;;1.00;1.00;;;;;;;;;;1850959;76;26255;-87
2022/08/12 14:42:49;;;;;;;0.98;0.98;;;;;;;;;;1853232;77;26842;-87
2022/08/12 14:45:16;;;;;;;1.00;1.00;;;;;;;;;;1866549;75;26353;-86
2022/08/12 14:47:50;;;;;;;0.95;0.95;;;;;;;;;;1861120;75;26280;-87
2022/08/12 14:50:17;;;;;;;1.00;1.00;;;;;;;;;;1852358;76;26322;-87
2022/08/12 14:52:45;;;;;;;0.90;0.90;;;;;;;;;;1810672;78;26359;-87
2022/08/12 14:55:14;;;;;;;0.80;0.80;;;;;;;;;;1826539;77;26306;-87
2022/08/12 14:57:52;;;;;;;1.00;1.00;;;;;;;;;;1825313;77;26213;-86
2022/08/12 15:03:09;;;;;;;0.90;0.90;;;;;;;;;;1883540;76;26276;-88
2022/08/12 15:05:39;;;;;;;0.90;0.90;;;;;;;;;;1891055;75;26768;-87
2022/08/12 15:08:12;;;;;;;0.90;0.90;;;;;;;;;;1874333;76;26301;-87
2022/08/12 15:10:45;;;;;;;1.02;1.02;;;;;;;;;;1876611;76;26273;-88
2022/08/12 15:13:12;;;;;;;0.90;0.90;;;;;;;;;;1867130;75;26335;-86
2022/08/12 15:15:41;;;;;;;0.95;0.95;;;;;;;;;;1864355;76;26284;-87
2022/08/12 15:18:09;;;;;;;0.90;0.90;;;;;;;;;;1866714;76;26213;-86
2022/08/12 15:20:36;;;;;;;0.90;0.90;;;;;;;;;;1869870;75;26842;-87
2022/08/12 15:23:05;;;;;;;0.90;0.90;;;;;;;;;;1873385;75;26253;-87
2022/08/12 15:25:34;;;;;;;0.93;0.93;;;;;;;;;;1872560;75;26752;-86
2022/08/12 15:28:01;;;;;;;0.90;0.90;;;;;;;;;;1872612;76;26284;-89
2022/08/12 15:30:29;;;;;;;1.00;1.00;;;;;;;;;;1874198;76;26314;-87
2022/08/12 15:32:56;;;;;;;0.95;0.95;;;;;;;;;;1860852;76;26358;-86
2022/08/12 15:35:27;;;;;;;0.90;0.90;;;;;;;;;;1872130;75;26265;-87
2022/08/12 15:38:05;;;;;;;1.00;1.00;;;;;;;;;;1865273;75;26417;-87
2022/08/12 15:40:36;;;;;;;1.00;1.00;;;;;;;;;;1882817;75;26303;-87
2022/08/12 15:43:04;;;;;;;1.02;0.90;;;;;;;;;;1873485;75;26315;-88
2022/08/12 15:45:32;;;;;;;1.00;1.00;;;;;;;;;;1906155;74;26351;-88
2022/08/12 15:48:00;;;;;;;1.00;1.00;;;;;;;;;;1894580;74;26291;-87
2022/08/12 15:50:28;;;;;;;0.88;0.88;;;;;;;;;;1875804;75;26298;-87
2022/08/12 15:52:56;;;;;;;1.00;1.00;;;;;;;;;;1880909;75;26281;-86
2022/08/12 15:55:24;;;;;;;1.00;1.00;;;;;;;;;;1891981;75;26223;-87
2022/08/12 15:57:56;;;;;;;1.10;1.10;;;;;;;;;;1872098;75;26297;-87
2022/08/12 16:00:24;;;;;;;0.90;0.90;;;;;;;;;;1890996;75;26347;-87
2022/08/12 16:02:53;;;;;;;1.20;1.10;;;;;;;;;;1893029;75;26265;-85
2022/08/12 16:05:21;;;;;;;1.10;1.10;;;;;;;;;;1890143;75;26356;-86
2022/08/12 16:07:49;;;;;;;1.10;1.10;;;;;;;;;;1892835;75;26370;-86
2022/08/12 16:10:17;;;;;;;1.10;1.10;;;;;;;;;;1891378;75;26288;-87
2022/08/12 16:12:46;;;;;;;1.20;1.20;;;;;;;;;;1881681;75;26249;-87
2022/08/12 16:15:15;;;;;;;1.30;1.30;;;;;;;;;;1892300;75;26260;-86
2022/08/12 16:17:46;;;;;;;1.45;1.35;;;;;;;;;;1883561;75;26331;-86
2022/08/12 16:20:20;;;;;;;1.10;1.10;;;;;;;;;;1894253;75;26296;-86
2022/08/12 16:22:51;;;;;;;1.22;1.22;;;;;;;;;;1892233;76;26379;-85
2022/08/12 16:25:19;;;;;;;1.20;1.20;;;;;;;;;;1895258;74;26634;-88
2022/08/12 16:27:51;;;;;;;1.45;1.45;;;;;;;;;;1875623;75;26306;-86
2022/08/12 16:30:19;;;;;;;1.37;1.37;;;;;;;;;;1894980;75;26296;-88
2022/08/12 16:32:47;;;;;;;1.47;1.47;;;;;;;;;;1880263;75;26257;-85
2022/08/12 16:35:14;;;;;;;1.20;1.20;;;;;;;;;;1891744;75;26277;-85